Time;durP1;ratioP1;P1;durP2;ratioP2;P2;SDS_P1;SDS_P2;PMS_P1;PMS_P2;Temp;Humidity;BMP_temperature;BMP_pressure;BME280_temperature;BME280_humidity;BME280_pressure;Samples;Min_cycle;Max_cycle;Signal;HPM_P1;HPM_P2
2023/03/10 00:01:15;;;;;;;3.30;1.67;;;3.90;99.90;;;;;;5067331;28;20040;-56
2023/03/10 00:03:42;;;;;;;3.88;1.73;;;3.90;99.90;;;;;;5057774;28;20068;-51
2023/03/10 00:06:12;;;;;;;3.10;1.60;;;4.10;99.90;;;;;;5070720;28;20052;-52
2023/03/10 00:08:39;;;;;;;4.32;1.70;;;4.00;99.90;;;;;;5071949;28;20134;-52
2023/03/10 00:11:06;;;;;;;4.15;1.83;;;4.00;99.90;;;;;;5068089;28;20054;-52
2023/03/10 00:13:34;;;;;;;7.85;1.55;;;3.90;99.90;;;;;;5071936;28;20103;-53
2023/03/10 00:16:00;;;;;;;;;;;3.90;99.90;;;;;;5072182;28;20044;-53
2023/03/10 00:18:28;;;;;;;8.20;2.17;;;3.80;99.90;;;;;;5072350;28;20420;-51
2023/03/10 00:20:55;;;;;;;3.50;1.58;;;3.70;99.90;;;;;;5060926;28;20072;-50
2023/03/10 00:23:21;;;;;;;5.22;2.08;;;3.70;99.90;;;;;;5052046;28;20036;-52
2023/03/10 00:25:59;;;;;;;4.30;2.20;;;3.70;99.90;;;;;;5060372;28;20094;-54
2023/03/10 00:28:26;;;;;;;5.40;2.40;;;3.70;99.90;;;;;;5051195;28;20076;-50
2023/03/10 00:30:58;;;;;;;4.53;2.60;;;3.60;99.90;;;;;;5052359;28;20056;-51
2023/03/10 00:33:24;;;;;;;5.25;2.75;;;3.70;99.90;;;;;;5045107;28;20032;-52
2023/03/10 00:36:19;;;;;;;5.10;2.38;;;3.70;99.90;;;;;;5050638;28;20550;-51
2023/03/10 00:38:48;;;;;;;5.18;2.38;;;3.70;99.90;;;;;;5054064;28;20578;-51
2023/03/10 00:41:20;;;;;;;5.18;2.38;;;3.70;99.90;;;;;;5049389;28;20517;-51
2023/03/10 00:43:47;;;;;;;7.95;2.97;;;3.70;99.90;;;;;;5034119;28;20094;-53
2023/03/10 00:46:14;;;;;;;;;;;3.70;99.90;;;;;;5051380;28;20521;-51
2023/03/10 00:48:41;;;;;;;5.07;2.35;;;3.70;99.90;;;;;;5051410;28;19925;-51
2023/03/10 00:51:08;;;;;;;3.78;1.65;;;3.70;99.90;;;;;;5044783;28;20490;-51
2023/03/10 00:53:37;;;;;;;4.70;1.55;;;3.60;99.90;;;;;;5054030;28;20048;-55
2023/03/10 00:56:07;;;;;;;5.32;1.48;;;3.50;99.90;;;;;;5072049;28;20382;-55
2023/03/10 00:58:34;;;;;;;5.38;1.13;;;3.50;99.90;;;;;;5052890;28;20109;-52
2023/03/10 01:01:03;;;;;;;4.30;1.20;;;3.50;99.90;;;;;;5063390;28;20048;-50
2023/03/10 01:03:30;;;;;;;4.63;1.10;;;3.50;99.90;;;;;;5050565;28;20048;-51
2023/03/10 01:05:57;;;;;;;3.42;1.10;;;3.50;99.90;;;;;;5050758;28;20064;-51
2023/03/10 01:08:24;;;;;;;3.08;1.00;;;3.40;99.90;;;;;;5052392;28;20052;-52
2023/03/10 01:10:51;;;;;;;6.20;1.58;;;3.30;99.90;;;;;;5053756;28;20481;-53
2023/03/10 01:13:18;;;;;;;4.85;1.65;;;3.30;99.90;;;;;;5048344;28;20032;-52
2023/03/10 01:15:49;;;;;;;3.83;1.83;;;3.20;99.90;;;;;;5038018;28;20494;-51
2023/03/10 01:18:17;;;;;;;6.75;2.03;;;3.30;99.90;;;;;;5050188;28;20037;-52
2023/03/10 01:20:45;;;;;;;6.95;2.15;;;3.30;99.90;;;;;;5033564;28;20167;-51
2023/03/10 01:23:18;;;;;;;6.50;2.28;;;3.30;99.90;;;;;;5051173;28;20041;-52
2023/03/10 01:25:45;;;;;;;4.13;2.00;;;3.30;99.90;;;;;;5041911;28;20562;-53
2023/03/10 01:28:12;;;;;;;3.35;1.85;;;3.30;99.90;;;;;;5062662;28;20044;-52
2023/03/10 01:30:40;;;;;;;4.75;2.15;;;3.30;99.90;;;;;;5070936;28;20525;-50
2023/03/10 01:33:08;;;;;;;4.60;1.95;;;3.20;99.90;;;;;;5069925;28;20044;-52
2023/03/10 01:35:36;;;;;;;3.10;1.40;;;3.10;99.90;;;;;;5065401;28;20040;-52
2023/03/10 01:38:03;;;;;;;4.35;2.03;;;3.00;99.90;;;;;;5051401;28;20049;-51
2023/03/10 01:40:30;;;;;;;3.45;1.48;;;2.90;99.90;;;;;;5046426;28;20041;-55
2023/03/10 01:43:19;;;;;;;3.97;2.03;;;2.90;99.90;;;;;;5033331;28;20037;-52
2023/03/10 01:45:46;;;;;;;6.20;1.70;;;2.90;99.90;;;;;;5033127;28;20053;-52
2023/03/10 01:48:16;;;;;;;2.83;1.10;;;3.00;99.90;;;;;;5032798;28;20037;-51
2023/03/10 01:50:47;;;;;;;2.40;1.30;;;2.90;99.90;;;;;;5051078;28;20071;-53
2023/03/10 01:53:16;;;;;;;4.05;1.25;;;2.90;99.90;;;;;;5032493;28;20052;-53
2023/03/10 01:55:49;;;;;;;5.15;1.42;;;2.80;99.90;;;;;;5043564;28;20489;-52
2023/03/10 01:58:18;;;;;;;2.90;1.40;;;2.70;99.90;;;;;;5033632;28;20098;-55
2023/03/10 02:00:45;;;;;;;3.35;1.50;;;2.70;99.90;;;;;;5033697;28;20041;-51
2023/03/10 02:03:22;;;;;;;14.65;2.03;;;2.70;99.90;;;;;;5032807;28;20033;-52
2023/03/10 02:06:05;;;;;;;6.30;2.05;;;2.70;99.90;;;;;;5042611;28;20504;-51
2023/03/10 02:08:40;;;;;;;3.45;1.73;;;2.70;99.90;;;;;;5058622;28;20041;-52
2023/03/10 02:11:13;;;;;;;2.45;1.15;;;2.70;99.90;;;;;;5033320;28;20044;-51
2023/03/10 02:13:41;;;;;;;5.57;1.75;;;2.60;99.90;;;;;;5050660;28;20044;-51
2023/03/10 02:16:08;;;;;;;3.50;1.40;;;2.60;99.90;;;;;;5032856;28;20102;-51
2023/03/10 02:18:35;;;;;;;;;;;2.50;99.90;;;;;;5050436;28;20041;-54
2023/03/10 02:21:29;;;;;;;5.60;2.00;;;2.50;99.90;;;;;;5049411;28;20331;-51
2023/03/10 02:24:12;;;;;;;4.45;1.95;;;2.50;99.90;;;;;;5050211;28;20055;-52
2023/03/10 02:26:54;;;;;;;9.65;2.22;;;2.60;99.90;;;;;;5032881;28;20079;-51
2023/03/10 02:29:37;;;;;;;6.63;1.60;;;2.60;99.90;;;;;;5051169;28;20037;-50
2023/03/10 02:32:23;;;;;;;5.47;1.80;;;2.70;99.90;;;;;;5033010;28;20064;-51
2023/03/10 02:34:50;;;;;;;3.75;1.73;;;2.70;99.90;;;;;;5032946;28;20157;-54
2023/03/10 02:37:25;;;;;;;2.00;1.17;;;2.60;99.90;;;;;;5032932;28;20045;-51
2023/03/10 02:39:53;;;;;;;3.10;1.55;;;2.60;99.90;;;;;;5046064;28;20090;-54
2023/03/10 02:42:24;;;;;;;3.42;1.58;;;2.60;99.90;;;;;;5051140;28;20645;-53
2023/03/10 02:44:51;;;;;;;3.90;1.00;;;2.60;99.90;;;;;;5057393;28;20098;-52
2023/03/10 02:47:19;;;;;;;1.77;1.27;;;2.50;99.90;;;;;;5065858;28;20055;-52
2023/03/10 02:49:46;;;;;;;2.17;0.93;;;2.50;99.90;;;;;;5064116;28;20033;-52
2023/03/10 02:52:41;;;;;;;6.80;1.27;;;2.40;99.90;;;;;;5036365;28;20099;-52
2023/03/10 02:55:14;;;;;;;3.40;1.50;;;2.50;99.90;;;;;;5053140;28;20056;-53
2023/03/10 02:57:41;;;;;;;3.45;1.38;;;2.50;99.90;;;;;;5035839;28;20128;-51
2023/03/10 03:00:10;;;;;;;2.30;0.88;;;2.50;99.90;;;;;;5040217;28;20076;-51
2023/03/10 03:02:36;;;;;;;4.30;1.60;;;2.50;99.90;;;;;;5053827;28;20382;-51
2023/03/10 03:05:06;;;;;;;3.47;1.88;;;2.50;99.90;;;;;;5035848;28;20075;-51
2023/03/10 03:07:33;;;;;;;7.55;2.10;;;2.50;99.90;;;;;;5046387;28;20039;-49
2023/03/10 03:10:43;;;;;;;6.78;2.00;;;2.60;99.90;;;;;;5066177;22;20041;-53
2023/03/10 03:13:11;;;;;;;1.90;1.10;;;2.60;99.90;;;;;;5029724;28;20045;-51
2023/03/10 03:15:38;;;;;;;5.32;1.50;;;2.70;99.90;;;;;;5032913;28;20288;-53
2023/03/10 03:18:06;;;;;;;5.07;1.42;;;2.70;99.90;;;;;;5041577;28;20598;-51
2023/03/10 03:20:36;;;;;;;5.63;1.17;;;2.70;99.90;;;;;;5058414;28;20060;-49
2023/03/10 03:23:05;;;;;;;2.72;1.20;;;2.80;99.90;;;;;;5052659;28;20511;-49
2023/03/10 03:25:35;;;;;;;3.53;1.40;;;2.80;99.90;;;;;;5054911;28;20094;-50
2023/03/10 03:28:04;;;;;;;4.22;1.60;;;2.80;99.90;;;;;;5051972;28;20321;-50
2023/03/10 03:30:31;;;;;;;2.90;1.00;;;2.80;99.90;;;;;;5051886;28;20041;-52
2023/03/10 03:32:59;;;;;;;2.55;1.20;;;2.90;99.90;;;;;;5053509;28;20041;-51
2023/03/10 03:35:33;;;;;;;2.58;1.13;;;2.90;99.90;;;;;;5055430;28;20041;-51
2023/03/10 03:38:01;;;;;;;4.30;1.48;;;2.60;99.90;;;;;;5052114;28;20094;-50
2023/03/10 03:40:32;;;;;;;4.82;1.60;;;2.40;99.90;;;;;;5051772;28;20069;-52
2023/03/10 03:43:00;;;;;;;7.93;1.92;;;2.30;99.90;;;;;;5064009;28;20139;-50
2023/03/10 03:45:28;;;;;;;8.25;2.38;;;2.20;99.90;;;;;;5071763;28;20049;-52
2023/03/10 03:47:55;;;;;;;6.50;2.17;;;2.20;99.90;;;;;;5071164;28;20048;-49
2023/03/10 03:50:24;;;;;;;6.47;1.90;;;2.20;99.90;;;;;;5066068;28;20397;-51
2023/03/10 03:52:53;;;;;;;3.13;1.88;;;2.10;99.90;;;;;;5051736;28;20037;-50
2023/03/10 03:55:22;;;;;;;6.95;1.95;;;2.10;99.90;;;;;;5052420;28;20041;-51
2023/03/10 03:57:50;;;;;;;6.45;2.50;;;2.20;99.90;;;;;;5068031;28;20033;-50
2023/03/10 04:00:23;;;;;;;4.32;2.05;;;2.20;99.90;;;;;;5070469;28;20411;-53
2023/03/10 04:02:57;;;;;;;4.40;2.33;;;2.30;99.90;;;;;;5072009;28;20094;-52
2023/03/10 04:05:25;;;;;;;7.53;2.83;;;2.40;99.90;;;;;;5062293;28;20524;-50
2023/03/10 04:07:52;;;;;;;4.75;1.77;;;2.50;99.90;;;;;;5056318;28;20041;-53
2023/03/10 04:10:22;;;;;;;4.35;2.40;;;2.40;99.90;;;;;;5051192;28;20039;-51
2023/03/10 04:12:50;;;;;;;5.85;2.17;;;2.60;99.90;;;;;;5053701;28;20033;-50
2023/03/10 04:15:16;;;;;;;3.45;1.65;;;2.60;99.90;;;;;;5063048;28;20036;-51
2023/03/10 04:17:43;;;;;;;7.72;2.97;;;2.70;99.90;;;;;;5070316;28;20450;-50
2023/03/10 04:20:14;;;;;;;6.97;3.65;;;2.70;99.90;;;;;;5054129;28;20045;-51
2023/03/10 04:22:44;;;;;;;9.45;3.20;;;2.80;99.90;;;;;;5060907;28;20504;-52
2023/03/10 04:25:12;;;;;;;4.80;2.60;;;3.00;99.90;;;;;;5056365;28;20064;-50
2023/03/10 04:27:39;;;;;;;6.57;3.13;;;3.10;99.90;;;;;;5054532;28;20079;-51
2023/03/10 04:30:08;;;;;;;7.50;2.90;;;3.20;99.90;;;;;;5052446;28;20037;-51
2023/03/10 04:32:37;;;;;;;6.72;3.03;;;3.20;99.90;;;;;;5055446;28;20069;-52
2023/03/10 04:35:07;;;;;;;4.43;2.88;;;3.20;99.90;;;;;;5051254;28;20509;-49
2023/03/10 04:37:33;;;;;;;6.15;2.70;;;3.30;99.90;;;;;;5070234;28;20103;-52
2023/03/10 04:40:07;;;;;;;4.22;2.63;;;3.30;99.90;;;;;;5068536;28;20056;-50
2023/03/10 04:42:34;;;;;;;5.07;3.20;;;3.40;99.90;;;;;;5066620;28;20082;-52
2023/03/10 04:45:00;;;;;;;7.97;2.47;;;3.40;99.90;;;;;;5072060;28;20467;-51
2023/03/10 04:47:27;;;;;;;8.23;2.63;;;3.40;99.90;;;;;;5071219;28;20059;-51
2023/03/10 04:49:54;;;;;;;6.93;3.45;;;3.30;99.90;;;;;;5068505;28;20037;-50
2023/03/10 04:52:21;;;;;;;8.43;2.00;;;3.20;99.90;;;;;;5052603;28;20045;-51
2023/03/10 04:54:48;;;;;;;3.95;1.80;;;3.20;99.90;;;;;;5050881;28;20041;-53
2023/03/10 04:57:15;;;;;;;4.63;1.15;;;3.10;99.90;;;;;;5062325;28;20044;-50
2023/03/10 04:59:43;;;;;;;3.17;1.73;;;3.10;99.90;;;;;;5065391;28;20044;-50
2023/03/10 05:02:10;;;;;;;3.78;2.28;;;2.90;99.90;;;;;;5069952;28;20040;-51
2023/03/10 05:04:38;;;;;;;3.60;2.08;;;2.90;99.90;;;;;;5070108;28;20574;-51
2023/03/10 05:07:05;;;;;;;3.63;2.00;;;3.00;99.90;;;;;;5068049;28;20497;-49
2023/03/10 05:09:36;;;;;;;4.22;2.30;;;3.00;99.90;;;;;;5069040;28;20041;-50
2023/03/10 05:12:05;;;;;;;3.13;1.80;;;2.90;99.90;;;;;;5070085;28;20139;-53
2023/03/10 05:14:35;;;;;;;3.88;1.75;;;2.90;99.90;;;;;;5069310;28;20051;-51
2023/03/10 05:17:02;;;;;;;1.90;1.25;;;2.90;99.90;;;;;;5069611;28;20052;-50
2023/03/10 05:19:33;;;;;;;2.97;1.67;;;2.90;99.90;;;;;;5067633;28;20052;-51
2023/03/10 05:22:02;;;;;;;7.25;3.70;;;2.90;99.90;;;;;;5067654;28;20036;-54
2023/03/10 05:24:32;;;;;;;6.78;3.08;;;2.80;99.90;;;;;;5063114;28;20581;-52
2023/03/10 05:27:01;;;;;;;7.43;2.08;;;2.80;99.90;;;;;;5065534;28;20048;-52
2023/03/10 05:29:29;;;;;;;6.88;2.63;;;2.80;99.90;;;;;;5068059;28;20086;-50
2023/03/10 05:32:03;;;;;;;7.53;3.88;;;2.90;99.90;;;;;;5063718;28;20072;-49
2023/03/10 05:34:34;;;;;;;6.90;2.85;;;2.90;99.90;;;;;;5061863;28;20041;-51
2023/03/10 05:37:02;;;;;;;6.30;1.88;;;2.90;99.90;;;;;;5051887;28;20398;-51
2023/03/10 05:39:29;;;;;;;12.15;2.42;;;2.90;99.90;;;;;;5058825;28;20119;-50
2023/03/10 05:41:59;;;;;;;1.90;1.17;;;2.90;99.90;;;;;;5064587;28;20040;-50
2023/03/10 05:44:29;;;;;;;2.78;1.17;;;3.00;99.90;;;;;;5050087;28;20505;-50
2023/03/10 05:46:56;;;;;;;4.63;1.52;;;3.00;99.90;;;;;;5049801;28;20083;-50
2023/03/10 05:49:23;;;;;;;5.47;1.25;;;3.00;99.90;;;;;;5065116;28;20121;-50
2023/03/10 05:51:51;;;;;;;4.97;2.03;;;2.90;99.90;;;;;;5059350;28;20091;-50
2023/03/10 05:54:18;;;;;;;;;;;2.90;99.90;;;;;;5063562;28;20045;-53
2023/03/10 05:56:45;;;;;;;9.60;3.83;;;2.90;99.90;;;;;;5055258;28;19924;-50
2023/03/10 05:59:12;;;;;;;4.57;2.45;;;3.00;99.90;;;;;;5051757;28;20477;-51
2023/03/10 06:01:39;;;;;;;4.97;1.90;;;2.90;99.90;;;;;;5061303;28;20413;-49
2023/03/10 06:04:05;;;;;;;6.30;3.17;;;2.90;99.90;;;;;;5062592;28;20531;-53
2023/03/10 06:06:33;;;;;;;4.05;2.78;;;2.90;99.90;;;;;;5070071;28;20473;-53
2023/03/10 06:09:00;;;;;;;8.13;2.65;;;2.80;99.90;;;;;;5066064;28;20098;-51
2023/03/10 06:11:27;;;;;;;3.72;2.15;;;2.90;99.90;;;;;;5053650;28;20051;-50
2023/03/10 06:13:53;;;;;;;5.40;2.67;;;3.00;99.90;;;;;;5067508;28;20382;-50
2023/03/10 06:16:20;;;;;;;6.07;2.40;;;3.10;99.90;;;;;;5065716;28;20583;-50
2023/03/10 06:18:52;;;;;;;9.63;3.28;;;3.10;99.90;;;;;;5068321;28;20472;-51
2023/03/10 06:21:19;;;;;;;6.80;3.00;;;3.20;99.90;;;;;;5071737;28;20094;-50
2023/03/10 06:23:46;;;;;;;9.85;3.30;;;3.30;99.90;;;;;;5073332;28;20094;-50
2023/03/10 06:26:15;;;;;;;5.55;2.97;;;3.40;99.90;;;;;;5065596;28;20121;-49
2023/03/10 06:28:43;;;;;;;14.93;5.10;;;3.40;99.90;;;;;;5067679;28;20066;-51
2023/03/10 06:31:26;;;;;;;7.43;3.88;;;3.50;99.90;;;;;;5070962;28;20040;-49
2023/03/10 06:33:53;;;;;;;12.40;4.25;;;3.70;99.90;;;;;;5073678;28;20040;-50
2023/03/10 06:36:21;;;;;;;13.55;4.82;;;3.80;99.90;;;;;;5068217;28;20036;-50
2023/03/10 06:38:48;;;;;;;9.32;4.70;;;3.90;99.90;;;;;;5062928;28;20072;-51
2023/03/10 06:41:15;;;;;;;;;;;4.00;99.90;;;;;;5063439;28;20086;-51
2023/03/10 06:43:42;;;;;;;14.30;5.45;;;4.00;99.90;;;;;;5064722;28;19924;-50
2023/03/10 06:46:10;;;;;;;9.98;4.72;;;4.10;99.90;;;;;;5064003;28;20040;-51
2023/03/10 06:48:39;;;;;;;9.27;4.75;;;4.20;99.90;;;;;;5064196;28;20051;-53
2023/03/10 06:51:07;;;;;;;17.55;6.30;;;4.20;99.90;;;;;;5060827;28;20098;-54
2023/03/10 06:53:34;;;;;;;17.30;6.35;;;4.30;99.90;;;;;;5064321;28;20045;-50
2023/03/10 06:56:13;;;;;;;13.68;5.40;;;4.30;99.90;;;;;;5063001;28;20106;-51
2023/03/10 06:58:40;;;;;;;14.30;4.90;;;4.20;99.90;;;;;;5062791;28;20075;-50
2023/03/10 07:01:18;;;;;;;8.93;3.85;;;4.20;99.90;;;;;;5064253;28;20044;-50
2023/03/10 07:03:45;;;;;;;13.75;3.28;;;3.40;99.90;;;;;;5064719;28;20439;-53
2023/03/10 07:06:11;;;;;;;9.65;3.85;;;4.20;99.90;;;;;;5064192;28;20076;-50
2023/03/10 07:08:38;;;;;;;8.57;4.00;;;4.00;99.90;;;;;;5062559;28;20110;-50
2023/03/10 07:11:05;;;;;;;5.95;2.80;;;4.10;99.90;;;;;;5063965;28;20068;-53
2023/03/10 07:13:31;;;;;;;7.68;3.97;;;4.10;99.90;;;;;;5062847;28;20041;-51
2023/03/10 07:15:58;;;;;;;4.60;3.13;;;4.20;99.90;;;;;;5063684;28;20048;-53
2023/03/10 07:18:28;;;;;;;11.32;3.80;;;4.20;99.90;;;;;;5067371;28;20036;-50
2023/03/10 07:20:55;;;;;;;8.50;4.07;;;4.30;99.90;;;;;;5064249;28;20074;-52
2023/03/10 07:23:23;;;;;;;17.95;4.88;;;4.40;99.90;;;;;;5058195;28;20047;-51
2023/03/10 07:25:55;;;;;;;9.38;4.82;;;4.50;99.90;;;;;;5052829;28;20099;-50
2023/03/10 07:28:25;;;;;;;8.48;4.60;;;4.60;99.90;;;;;;5052342;28;20060;-50
2023/03/10 07:30:52;;;;;;;9.65;5.20;;;4.60;99.90;;;;;;5052732;28;20072;-52
2023/03/10 07:33:19;;;;;;;16.65;6.55;;;4.70;99.90;;;;;;5064092;28;20447;-50
2023/03/10 07:35:46;;;;;;;9.88;5.88;;;4.70;99.90;;;;;;5069160;28;20079;-51
2023/03/10 07:38:12;;;;;;;13.15;5.18;;;4.70;99.90;;;;;;5073276;28;20060;-50
2023/03/10 07:40:39;;;;;;;13.23;4.00;;;4.80;99.90;;;;;;5072417;28;20068;-50
2023/03/10 07:43:06;;;;;;;11.20;5.13;;;4.80;99.90;;;;;;5065056;28;20048;-50
2023/03/10 07:45:34;;;;;;;9.18;4.57;;;4.90;99.90;;;;;;5072410;28;20514;-52
2023/03/10 07:48:01;;;;;;;9.15;4.30;;;4.90;99.90;;;;;;5073281;28;20048;-51
2023/03/10 07:50:27;;;;;;;14.95;4.60;;;5.00;99.90;;;;;;5071180;28;20612;-52
2023/03/10 07:52:55;;;;;;;8.88;4.00;;;5.10;99.90;;;;;;5073244;28;20048;-50
2023/03/10 07:55:22;;;;;;;9.15;4.30;;;5.20;99.90;;;;;;5067416;28;20045;-49
2023/03/10 07:57:49;;;;;;;8.75;4.13;;;5.30;99.90;;;;;;5052948;28;20037;-51
2023/03/10 08:00:16;;;;;;;14.60;4.90;;;5.30;99.90;;;;;;5052476;28;20048;-49
2023/03/10 08:02:43;;;;;;;10.75;4.75;;;5.40;99.90;;;;;;5051773;28;20055;-51
2023/03/10 08:05:10;;;;;;;10.95;4.50;;;5.40;99.90;;;;;;5054476;28;20049;-50
2023/03/10 08:07:37;;;;;;;10.52;4.88;;;5.50;99.90;;;;;;5052943;28;20045;-53
2023/03/10 08:10:04;;;;;;;12.10;5.03;;;5.70;99.90;;;;;;5052098;28;20489;-50
2023/03/10 08:12:31;;;;;;;12.98;5.90;;;5.80;99.90;;;;;;5057400;28;20535;-51
2023/03/10 08:14:58;;;;;;;17.92;7.88;;;5.90;99.90;;;;;;5059718;28;20116;-51
2023/03/10 08:17:29;;;;;;;11.85;4.70;;;6.10;99.90;;;;;;5052538;28;20493;-51
2023/03/10 08:19:57;;;;;;;13.32;5.05;;;6.20;99.90;;;;;;5051749;28;20131;-50
2023/03/10 08:22:24;;;;;;;4.57;3.00;;;6.30;99.90;;;;;;5055626;28;20040;-50
2023/03/10 08:24:51;;;;;;;9.63;2.95;;;6.30;99.90;;;;;;5054748;28;20378;-49
2023/03/10 08:27:18;;;;;;;12.10;4.10;;;6.30;99.90;;;;;;5052434;28;20052;-50
2023/03/10 08:29:45;;;;;;;5.00;3.28;;;6.40;99.90;;;;;;5051723;28;20036;-51
2023/03/10 08:32:12;;;;;;;9.55;4.05;;;6.50;99.90;;;;;;5054496;28;20512;-50
2023/03/10 08:34:38;;;;;;;6.53;3.70;;;6.60;99.90;;;;;;5052392;28;20055;-51
2023/03/10 08:37:05;;;;;;;8.30;4.03;;;6.60;99.90;;;;;;5051878;28;20041;-49
2023/03/10 08:39:32;;;;;;;9.70;4.88;;;6.70;99.90;;;;;;5051925;28;20045;-50
2023/03/10 08:41:59;;;;;;;16.23;5.72;;;6.90;99.90;;;;;;5053647;28;20048;-50
2023/03/10 08:44:26;;;;;;;18.63;8.63;;;7.00;99.90;;;;;;5052242;28;20386;-52
2023/03/10 08:46:53;;;;;;;6.95;4.60;;;7.00;99.90;;;;;;5055195;28;20489;-50
2023/03/10 08:49:21;;;;;;;;;;;7.00;99.90;;;;;;5072017;28;20040;-50
2023/03/10 08:51:48;;;;;;;5.65;3.88;;;7.00;99.90;;;;;;5070965;28;19951;-51
2023/03/10 08:54:16;;;;;;;;;;;6.90;99.90;;;;;;5070018;28;20036;-51
2023/03/10 08:56:43;;;;;;;8.50;3.60;;;7.00;99.90;;;;;;5071890;28;19924;-51
2023/03/10 08:59:10;;;;;;;6.35;4.07;;;7.10;99.90;;;;;;5070083;28;20427;-50
2023/03/10 09:01:37;;;;;;;7.65;3.65;;;7.20;99.90;;;;;;5069752;28;20083;-51
2023/03/10 09:04:06;;;;;;;8.73;4.43;;;7.30;99.90;;;;;;5071716;28;20048;-50
2023/03/10 09:06:34;;;;;;;8.50;4.10;;;7.30;99.90;;;;;;5070833;28;20045;-50
2023/03/10 09:13:52;;;;;;;10.07;4.45;;;7.30;99.90;;;;;;5091922;28;20569;-60
2023/03/10 09:16:19;;;;;;;11.52;4.97;;;7.40;99.90;;;;;;5060948;28;20048;-61
2023/03/10 09:18:46;;;;;;;11.43;4.05;;;7.30;99.90;;;;;;5086283;28;20515;-60
2023/03/10 09:21:14;;;;;;;9.25;4.40;;;7.30;99.90;;;;;;5070803;28;20048;-60
2023/03/10 09:23:44;;;;;;;8.10;3.92;;;7.20;99.90;;;;;;5074076;28;20090;-60
2023/03/10 09:26:11;;;;;;;10.05;4.47;;;7.20;99.90;;;;;;5082561;28;20549;-60
2023/03/10 09:28:38;;;;;;;9.07;3.80;;;7.20;99.90;;;;;;5090619;28;20130;-60
2023/03/10 09:31:06;;;;;;;6.63;3.38;;;7.30;99.90;;;;;;5072200;28;20062;-60
2023/03/10 09:33:34;;;;;;;5.90;3.10;;;7.30;99.90;;;;;;5091475;28;20102;-60
2023/03/10 09:36:02;;;;;;;5.80;3.90;;;7.40;99.90;;;;;;5083621;28;20044;-60
2023/03/10 09:38:34;;;;;;;7.70;4.55;;;7.60;99.90;;;;;;5090767;28;20047;-60
2023/03/10 09:41:31;;;;;;;8.93;4.20;;;8.00;99.90;;;;;;5091340;28;20051;-60
2023/03/10 09:44:15;;;;;;;7.32;3.92;;;8.30;99.90;;;;;;5090213;28;20569;-60
2023/03/10 09:46:51;;;;;;;8.25;3.80;;;8.60;99.90;;;;;;5091312;28;20055;-60
2023/03/10 09:49:30;;;;;;;8.90;4.50;;;8.80;99.90;;;;;;5090755;28;20039;-60
2023/03/10 09:51:59;;;;;;;6.32;3.65;;;9.00;99.90;;;;;;5089865;28;20048;-60
2023/03/10 09:54:45;;;;;;;9.30;4.40;;;9.10;99.90;;;;;;5091199;28;20073;-60
2023/03/10 09:57:17;;;;;;;7.82;3.05;;;9.30;99.90;;;;;;5091339;28;20048;-60
2023/03/10 09:59:46;;;;;;;6.70;2.92;;;9.30;99.90;;;;;;5091091;28;20036;-60
2023/03/10 10:02:36;;;;;;;5.35;2.97;;;9.30;99.90;;;;;;5080122;28;20105;-60
2023/03/10 10:05:12;;;;;;;6.80;3.15;;;9.40;99.90;;;;;;5073138;28;20412;-61
2023/03/10 10:07:47;;;;;;;9.02;3.00;;;9.50;99.90;;;;;;5090997;28;20085;-60
2023/03/10 10:10:23;;;;;;;12.73;3.80;;;9.40;99.90;;;;;;5088156;28;20040;-60
2023/03/10 10:12:53;;;;;;;8.27;3.35;;;9.20;99.90;;;;;;5091090;28;20121;-60
2023/03/10 10:15:24;;;;;;;5.47;3.25;;;9.30;99.90;;;;;;5091336;28;20055;-60
2023/03/10 10:18:04;;;;;;;6.25;3.10;;;9.50;99.90;;;;;;5086441;28;20032;-60
2023/03/10 10:20:57;;;;;;;5.20;3.13;;;9.70;99.90;;;;;;5086562;28;20102;-60
2023/03/10 10:23:46;;;;;;;4.53;2.40;;;9.90;99.90;;;;;;5090557;28;20048;-60
2023/03/10 10:26:19;;;;;;;7.80;2.85;;;10.30;99.90;;;;;;5087943;28;20047;-60
2023/03/10 10:28:52;;;;;;;4.57;2.72;;;10.50;99.90;;;;;;5090456;28;20032;-60
2023/03/10 10:31:22;;;;;;;10.82;2.92;;;10.40;99.90;;;;;;5090861;28;20044;-60
2023/03/10 10:33:58;;;;;;;5.20;2.60;;;10.40;99.90;;;;;;5090943;28;20097;-60
2023/03/10 10:36:32;;;;;;;4.35;3.30;;;10.50;99.90;;;;;;5070692;28;20488;-60
2023/03/10 10:39:00;;;;;;;7.47;3.28;;;10.50;99.90;;;;;;5090349;28;20059;-60
2023/03/10 10:41:32;;;;;;;6.97;3.10;;;10.50;99.90;;;;;;5090715;28;20097;-60
2023/03/10 10:44:06;;;;;;;5.45;3.22;;;10.70;99.90;;;;;;5083410;28;20032;-61
2023/03/10 10:46:33;;;;;;;6.63;3.05;;;10.70;99.90;;;;;;5085547;28;20032;-60
2023/03/10 10:49:18;;;;;;;;;;;10.70;99.90;;;;;;5090970;28;20139;-60
2023/03/10 10:52:15;;;;;;;26.88;5.40;;;10.60;99.90;;;;;;5090509;28;19927;-60
2023/03/10 10:54:42;;;;;;;13.95;3.53;;;10.70;99.90;;;;;;5081131;28;20068;-60
2023/03/10 10:57:20;;;;;;;6.43;3.00;;;11.10;99.90;;;;;;5089518;28;20047;-60
2023/03/10 10:59:47;;;;;;;8.32;4.47;;;11.40;99.90;;;;;;5088686;28;20240;-60
2023/03/10 11:02:22;;;;;;;8.93;3.03;;;11.70;99.90;;;;;;5088803;28;20055;-60
2023/03/10 11:04:49;;;;;;;7.45;2.88;;;11.80;99.90;;;;;;5092230;28;20116;-60
2023/03/10 11:07:24;;;;;;;5.75;2.85;;;11.70;99.90;;;;;;5094094;28;20036;-61
2023/03/10 11:09:51;;;;;;;8.65;3.20;;;11.70;99.90;;;;;;5090260;28;20044;-60
2023/03/10 11:12:32;;;;;;;9.05;3.42;;;11.40;99.90;;;;;;5082158;28;20083;-60
2023/03/10 11:15:21;;;;;;;6.45;2.90;;;11.30;99.90;;;;;;5073795;28;20382;-60
2023/03/10 11:18:14;;;;;;;9.07;2.97;;;11.20;99.90;;;;;;5085167;28;20036;-60
2023/03/10 11:20:53;;;;;;;5.13;2.97;;;11.10;99.90;;;;;;5081054;28;20512;-60
2023/03/10 11:23:25;;;;;;;6.25;2.88;;;11.30;99.90;;;;;;5093809;28;20074;-61
2023/03/10 11:26:10;;;;;;;9.65;3.47;;;11.50;99.90;;;;;;5087101;28;20499;-61
2023/03/10 11:28:59;;;;;;;5.88;2.55;;;11.60;99.90;;;;;;5086584;28;20044;-61
2023/03/10 11:31:37;;;;;;;7.15;2.47;;;11.50;99.90;;;;;;5093917;28;20047;-61
2023/03/10 11:34:09;;;;;;;7.30;3.03;;;11.30;99.90;;;;;;5093589;28;20546;-60
2023/03/10 11:36:59;;;;;;;4.25;0.95;;;10.80;99.90;;;;;;5089196;28;20044;-60
2023/03/10 11:39:53;;;;;;;2.90;0.80;;;10.50;99.90;;;;;;5085921;28;20040;-60
2023/03/10 11:42:41;;;;;;;0.68;0.60;;;10.20;99.90;;;;;;5093945;28;20542;-60
2023/03/10 11:45:29;;;;;;;0.70;0.50;;;10.10;99.90;;;;;;5089215;28;20098;-60
2023/03/10 11:48:17;;;;;;;2.15;0.40;;;10.00;99.90;;;;;;5089541;28;20071;-60
2023/03/10 11:51:00;;;;;;;0.63;0.30;;;10.20;99.90;;;;;;5093492;28;20104;-60
2023/03/10 11:53:50;;;;;;;0.82;0.30;;;10.40;99.90;;;;;;5093580;28;20048;-60
2023/03/10 11:56:20;;;;;;;0.68;0.40;;;10.40;99.90;;;;;;5089196;28;20090;-61
2023/03/10 11:58:54;;;;;;;0.30;0.30;;;10.40;99.90;;;;;;5092890;28;20121;-60
2023/03/10 12:01:42;;;;;;;0.82;0.57;;;10.30;99.90;;;;;;5092839;28;20055;-60
2023/03/10 12:04:42;;;;;;;1.23;0.50;;;10.10;99.90;;;;;;5093664;28;20064;-60
2023/03/10 12:07:16;;;;;;;3.50;0.60;;;10.00;99.90;;;;;;5090830;28;20484;-60
2023/03/10 12:09:50;;;;;;;3.50;1.60;;;10.00;99.90;;;;;;5092387;28;20044;-60
2023/03/10 12:12:29;;;;;;;7.95;1.67;;;10.10;99.90;;;;;;5092743;28;20105;-60
2023/03/10 12:14:59;;;;;;;8.98;3.20;;;10.30;99.90;;;;;;5087228;28;20106;-61
2023/03/10 12:17:26;;;;;;;4.30;2.00;;;10.60;99.90;;;;;;5088576;28;20097;-61
2023/03/10 12:20:17;;;;;;;;;;;11.20;99.90;;;;;;5092940;28;20093;-61
2023/03/10 12:22:52;;;;;;;1.45;0.82;;;11.70;99.90;;;;;;5092829;28;19966;-61
2023/03/10 12:25:28;;;;;;;2.45;1.08;;;12.20;99.90;;;;;;5091176;28;20044;-60
2023/03/10 12:28:21;;;;;;;2.50;0.70;;;12.40;99.90;;;;;;5089504;28;20044;-61
2023/03/10 12:30:50;;;;;;;2.50;0.50;;;12.20;99.90;;;;;;5092838;28;20040;-60
2023/03/10 12:36:31;;;;;;;1.60;0.95;;;11.90;99.90;;;;;;5085802;28;20044;-60
2023/03/10 12:39:26;;;;;;;3.33;1.60;;;12.00;99.90;;;;;;5031874;28;20152;-60
2023/03/10 12:41:55;;;;;;;11.60;5.05;;;11.90;99.90;;;;;;5088084;28;20063;-60
2023/03/10 12:44:22;;;;;;;1.27;0.80;;;12.10;99.90;;;;;;5092390;28;20051;-60
2023/03/10 12:46:59;;;;;;;3.05;1.02;;;12.30;99.90;;;;;;5088902;28;20090;-61
2023/03/10 12:49:52;;;;;;;3.03;1.50;;;12.40;99.90;;;;;;5084587;28;20499;-60
2023/03/10 12:52:26;;;;;;;2.47;0.95;;;12.40;99.90;;;;;;5086827;28;20052;-60
2023/03/10 12:55:16;;;;;;;2.08;0.98;;;12.30;99.90;;;;;;5092530;28;20120;-60
2023/03/10 12:58:07;;;;;;;1.20;1.00;;;12.30;99.90;;;;;;5087870;28;20044;-60
2023/03/10 13:00:59;;;;;;;2.22;0.98;;;12.20;99.90;;;;;;5091892;28;20067;-60
2023/03/10 13:03:45;;;;;;;2.15;1.08;;;12.30;99.90;;;;;;5092236;28;20166;-60
2023/03/10 13:06:19;;;;;;;2.97;1.48;;;12.40;99.90;;;;;;5087785;28;20116;-60
2023/03/10 13:08:54;;;;;;;2.03;1.15;;;12.40;99.90;;;;;;5091423;28;20044;-60
2023/03/10 13:11:42;;;;;;;2.00;0.73;;;12.30;99.90;;;;;;5092009;28;20071;-60
2023/03/10 13:14:16;;;;;;;1.10;0.70;;;12.30;99.90;;;;;;5084748;28;20060;-61
2023/03/10 13:16:54;;;;;;;2.03;0.98;;;12.30;99.90;;;;;;5087599;28;20028;-60
2023/03/10 13:19:23;;;;;;;5.78;2.25;;;12.30;99.90;;;;;;5091486;28;20047;-60
2023/03/10 13:21:51;;;;;;;3.95;1.50;;;12.50;99.90;;;;;;5091244;28;20055;-60
2023/03/10 13:24:23;;;;;;;3.28;1.50;;;12.50;99.90;;;;;;5089519;28;20102;-61
2023/03/10 13:27:15;;;;;;;1.90;0.80;;;12.60;99.90;;;;;;5083103;28;20044;-60